Time;durP1;ratioP1;P1;durP2;ratioP2;P2;SDS_P1;SDS_P2;PMS_P1;PMS_P2;Temp;Humidity;BMP_temperature;BMP_pressure;BME280_temperature;BME280_humidity;BME280_pressure;Samples;Min_cycle;Max_cycle;Signal;HPM_P1;HPM_P2
2024/02/13 00:01:18;;;;;;;6.28;1.73;;;;;;;;;;5006769;28;20029;-78
2024/02/13 00:03:44;;;;;;;;;;;;;;;;;;5006553;28;20032;-78
2024/02/13 00:06:10;;;;;;;6.60;1.63;;;;;;;;;;5008542;28;19921;-79
2024/02/13 00:08:37;;;;;;;5.97;1.50;;;;;;;;;;5005660;28;20095;-78
2024/02/13 00:11:06;;;;;;;;;;;;;;;;;;5021053;28;20029;-78
2024/02/13 00:13:34;;;;;;;4.38;1.20;;;;;;;;;;5001994;28;19909;-78
2024/02/13 00:16:00;;;;;;;7.50;1.98;;;;;;;;;;5008082;28;20179;-79
2024/02/13 00:18:26;;;;;;;9.50;1.98;;;;;;;;;;5017678;28;20108;-78
2024/02/13 00:20:54;;;;;;;;;;;;;;;;;;5019330;28;20112;-78
2024/02/13 00:23:21;;;;;;;;;;;;;;;;;;5006687;28;19917;-78
2024/02/13 00:25:47;;;;;;;;;;;;;;;;;;5018541;28;19913;-77
2024/02/13 00:28:13;;;;;;;5.57;1.27;;;;;;;;;;5005258;28;19924;-78
2024/02/13 00:30:40;;;;;;;3.90;1.10;;;;;;;;;;4999568;28;20040;-77
2024/02/13 00:33:07;;;;;;;5.03;1.30;;;;;;;;;;5002522;28;20049;-77
2024/02/13 00:35:33;;;;;;;6.53;1.58;;;;;;;;;;5007302;28;20666;-77
2024/02/13 00:37:59;;;;;;;6.13;1.88;;;;;;;;;;5002276;28;20049;-77
2024/02/13 00:40:25;;;;;;;5.25;1.60;;;;;;;;;;5019656;28;20048;-77
2024/02/13 00:42:52;;;;;;;6.35;1.30;;;;;;;;;;5005904;28;20024;-77
2024/02/13 00:45:19;;;;;;;3.63;1.20;;;;;;;;;;5007819;28;20064;-77
2024/02/13 00:47:45;;;;;;;7.78;1.50;;;;;;;;;;5016022;28;20029;-77
2024/02/13 00:50:11;;;;;;;;;;;;;;;;;;5018025;28;20032;-77
2024/02/13 00:52:40;;;;;;;6.03;1.40;;;;;;;;;;5007446;28;19917;-77
2024/02/13 00:55:09;;;;;;;2.95;0.82;;;;;;;;;;5003546;28;20024;-76
2024/02/13 00:57:36;;;;;;;3.30;0.85;;;;;;;;;;4999362;28;20029;-77
2024/02/13 01:00:04;;;;;;;;;;;;;;;;;;5010295;28;20519;-77
2024/02/13 01:02:31;;;;;;;4.53;0.80;;;;;;;;;;5013276;28;19913;-78
2024/02/13 01:04:57;;;;;;;4.82;1.02;;;;;;;;;;5021736;28;20079;-77
2024/02/13 01:07:23;;;;;;;4.85;0.95;;;;;;;;;;5007040;28;20757;-77
2024/02/13 01:09:49;;;;;;;;;;;;;;;;;;5021152;28;20598;-78
2024/02/13 01:12:15;;;;;;;4.50;0.93;;;;;;;;;;5011126;28;19939;-78
2024/02/13 01:14:41;;;;;;;3.22;1.00;;;;;;;;;;5022456;28;20029;-77
2024/02/13 01:17:07;;;;;;;5.15;1.20;;;;;;;;;;5014042;28;20025;-77
2024/02/13 01:19:33;;;;;;;;;;;;;;;;;;5007370;28;20103;-79
2024/02/13 01:22:00;;;;;;;4.53;1.20;;;;;;;;;;5020231;28;20612;-78
2024/02/13 01:24:27;;;;;;;6.15;1.52;;;;;;;;;;5021318;28;20455;-77
2024/02/13 01:26:54;;;;;;;4.25;1.20;;;;;;;;;;5021646;28;20456;-77
2024/02/13 01:29:21;;;;;;;4.30;1.30;;;;;;;;;;5019600;28;20038;-78
2024/02/13 01:31:47;;;;;;;4.75;1.50;;;;;;;;;;5003974;28;20097;-77
2024/02/13 01:34:13;;;;;;;;;;;;;;;;;;5007062;28;20025;-77
2024/02/13 01:36:39;;;;;;;5.20;1.38;;;;;;;;;;5008457;28;20419;-77
2024/02/13 01:39:05;;;;;;;;;;;;;;;;;;5002329;28;20548;-77
2024/02/13 01:41:32;;;;;;;5.43;1.20;;;;;;;;;;5006868;28;19913;-77
2024/02/13 01:43:58;;;;;;;;;;;;;;;;;;5003217;28;20033;-77
2024/02/13 01:46:26;;;;;;;6.85;1.80;;;;;;;;;;5009701;28;19963;-78
2024/02/13 01:48:57;;;;;;;7.22;1.15;;;;;;;;;;5019760;28;20025;-76
2024/02/13 01:51:27;;;;;;;4.45;1.10;;;;;;;;;;5009970;28;20037;-76
2024/02/13 01:53:54;;;;;;;4.10;1.13;;;;;;;;;;5004974;28;20029;-77
2024/02/13 01:56:24;;;;;;;5.88;1.20;;;;;;;;;;5005738;28;20605;-78
2024/02/13 01:58:52;;;;;;;7.10;1.40;;;;;;;;;;5032327;28;20107;-79
2024/02/13 02:01:18;;;;;;;6.38;1.30;;;;;;;;;;5035730;28;20033;-79
2024/02/13 02:03:45;;;;;;;4.53;1.45;;;;;;;;;;5022726;28;20036;-79
2024/02/13 02:06:11;;;;;;;6.97;1.27;;;;;;;;;;5031148;28;20033;-78
2024/02/13 02:08:37;;;;;;;3.10;1.05;;;;;;;;;;5024778;28;20033;-79
2024/02/13 02:11:03;;;;;;;5.22;1.20;;;;;;;;;;5028327;28;20085;-79
2024/02/13 02:13:29;;;;;;;;;;;;;;;;;;5035692;28;20029;-78
2024/02/13 02:15:56;;;;;;;5.72;1.10;;;;;;;;;;5043959;28;19909;-77
2024/02/13 02:18:24;;;;;;;5.35;1.13;;;;;;;;;;5026600;28;20610;-77
2024/02/13 02:20:50;;;;;;;6.88;1.25;;;;;;;;;;5035108;28;20049;-77
2024/02/13 02:23:19;;;;;;;;;;;;;;;;;;5018974;28;20032;-77
2024/02/13 02:25:45;;;;;;;4.13;1.02;;;;;;;;;;5025000;28;19917;-77
2024/02/13 02:28:11;;;;;;;5.03;1.10;;;;;;;;;;5026620;28;20033;-79
2024/02/13 02:30:37;;;;;;;3.88;1.05;;;;;;;;;;5007782;28;20116;-77
2024/02/13 02:33:03;;;;;;;5.60;0.90;;;;;;;;;;5014830;28;20517;-77
2024/02/13 02:35:29;;;;;;;;;;;;;;;;;;5011058;28;20064;-77
2024/02/13 02:37:56;;;;;;;4.00;0.98;;;;;;;;;;5014737;28;19920;-77
2024/02/13 02:40:22;;;;;;;5.15;0.90;;;;;;;;;;5025119;28;20029;-77
2024/02/13 02:42:59;;;;;;;4.28;1.02;;;;;;;;;;5020118;28;20044;-76
2024/02/13 02:45:27;;;;;;;4.40;1.02;;;;;;;;;;5009792;28;20664;-75
2024/02/13 02:47:53;;;;;;;4.18;1.10;;;;;;;;;;5023812;28;20030;-77
2024/02/13 02:50:20;;;;;;;5.38;0.98;;;;;;;;;;5018588;28;20059;-78
2024/02/13 02:52:46;;;;;;;4.90;0.90;;;;;;;;;;5005880;28;20071;-77
2024/02/13 02:55:12;;;;;;;4.40;1.00;;;;;;;;;;5023770;28;20040;-78
2024/02/13 02:57:38;;;;;;;7.05;1.23;;;;;;;;;;5004728;28;20047;-77
2024/02/13 03:00:07;;;;;;;3.95;0.88;;;;;;;;;;5011231;28;20028;-76
2024/02/13 03:02:35;;;;;;;6.55;1.80;;;;;;;;;;5020376;28;20028;-76
2024/02/13 03:05:03;;;;;;;7.28;1.50;;;;;;;;;;5004761;28;20708;-76
2024/02/13 03:07:30;;;;;;;5.80;1.08;;;;;;;;;;5021215;28;20033;-76
2024/02/13 03:09:56;;;;;;;3.63;1.00;;;;;;;;;;5025702;28;20136;-79
2024/02/13 03:12:22;;;;;;;;;;;;;;;;;;5011886;28;20631;-78
2024/02/13 03:14:50;;;;;;;6.03;1.10;;;;;;;;;;5006613;28;20541;-79
2024/02/13 03:17:17;;;;;;;4.38;1.08;;;;;;;;;;5022210;28;20259;-78
2024/02/13 03:19:43;;;;;;;6.57;1.20;;;;;;;;;;5008565;28;20352;-79
2024/02/13 03:22:10;;;;;;;4.95;1.40;;;;;;;;;;5011329;28;20082;-78
2024/02/13 03:24:36;;;;;;;4.50;1.10;;;;;;;;;;5022179;28;20033;-77
2024/02/13 03:27:02;;;;;;;3.50;1.05;;;;;;;;;;5018673;28;20113;-76
2024/02/13 03:29:28;;;;;;;5.82;1.50;;;;;;;;;;5021320;28;20041;-79
2024/02/13 03:31:55;;;;;;;4.05;1.02;;;;;;;;;;5006070;28;20076;-78
2024/02/13 03:34:21;;;;;;;5.05;1.20;;;;;;;;;;5007289;28;20143;-78
2024/02/13 03:36:47;;;;;;;;;;;;;;;;;;4999802;28;20033;-76
2024/02/13 03:39:13;;;;;;;5.15;1.23;;;;;;;;;;5000914;28;20580;-77
2024/02/13 03:41:43;;;;;;;3.53;1.00;;;;;;;;;;5005569;28;20032;-79
2024/02/13 03:44:12;;;;;;;5.13;1.00;;;;;;;;;;5018929;28;20036;-76
2024/02/13 03:46:42;;;;;;;5.38;1.25;;;;;;;;;;5007179;28;20040;-76
2024/02/13 03:49:08;;;;;;;4.93;1.17;;;;;;;;;;5004604;28;20029;-76
2024/02/13 03:51:36;;;;;;;;;;;;;;;;;;5007325;28;20140;-78
2024/02/13 03:54:02;;;;;;;4.80;1.02;;;;;;;;;;5019788;28;19967;-76
2024/02/13 03:56:28;;;;;;;4.80;1.20;;;;;;;;;;5000059;28;20033;-75
2024/02/13 03:58:54;;;;;;;3.90;0.90;;;;;;;;;;5021670;28;20109;-76
2024/02/13 04:01:20;;;;;;;4.25;1.15;;;;;;;;;;5020741;28;20088;-76
2024/02/13 04:03:46;;;;;;;5.38;0.90;;;;;;;;;;5002204;28;20030;-79
2024/02/13 04:06:13;;;;;;;5.97;1.30;;;;;;;;;;5008772;28;20045;-78
2024/02/13 04:08:44;;;;;;;3.08;1.00;;;;;;;;;;5020276;28;20140;-77
2024/02/13 04:11:11;;;;;;;5.68;1.20;;;;;;;;;;5021264;28;20130;-79
2024/02/13 04:13:37;;;;;;;5.05;1.08;;;;;;;;;;5020520;28;20037;-77
2024/02/13 04:16:03;;;;;;;5.10;1.23;;;;;;;;;;5006303;28;20021;-78
2024/02/13 04:18:29;;;;;;;2.97;0.90;;;;;;;;;;5009051;28;20037;-79
2024/02/13 04:20:55;;;;;;;4.88;1.10;;;;;;;;;;5004022;28;20025;-79
2024/02/13 04:23:21;;;;;;;5.40;1.10;;;;;;;;;;5027614;28;20029;-79
2024/02/13 04:25:47;;;;;;;3.72;1.17;;;;;;;;;;5007617;28;20025;-79
2024/02/13 04:28:13;;;;;;;6.72;1.58;;;;;;;;;;5025282;28;20033;-79
2024/02/13 04:30:41;;;;;;;6.97;1.42;;;;;;;;;;5019420;28;20039;-78
2024/02/13 04:33:12;;;;;;;4.82;1.30;;;;;;;;;;5020132;28;20080;-79
2024/02/13 04:35:38;;;;;;;4.20;1.40;;;;;;;;;;5021540;28;20034;-79
2024/02/13 04:38:05;;;;;;;5.75;1.40;;;;;;;;;;5005601;28;20040;-79
2024/02/13 04:40:33;;;;;;;4.47;1.30;;;;;;;;;;5020624;28;20020;-78
2024/02/13 04:43:00;;;;;;;4.13;1.00;;;;;;;;;;5004539;28;20033;-79
2024/02/13 04:45:26;;;;;;;7.15;1.30;;;;;;;;;;5016420;28;20112;-79
2024/02/13 04:47:53;;;;;;;5.35;1.13;;;;;;;;;;5006929;28;20125;-79
2024/02/13 04:50:20;;;;;;;5.13;1.17;;;;;;;;;;5015685;28;20542;-80
2024/02/13 04:52:46;;;;;;;5.03;1.20;;;;;;;;;;5020954;28;20557;-80
2024/02/13 04:55:13;;;;;;;4.95;1.40;;;;;;;;;;5019434;28;20033;-79
2024/02/13 04:57:39;;;;;;;3.38;1.00;;;;;;;;;;5021306;28;20031;-79
2024/02/13 05:00:16;;;;;;;7.22;1.60;;;;;;;;;;5006044;28;20029;-78
2024/02/13 05:02:48;;;;;;;4.18;1.27;;;;;;;;;;4998702;28;20036;-80
2024/02/13 05:07:59;;;;;;;5.82;1.50;;;;;;;;;;5022196;28;20157;-78
2024/02/13 05:10:25;;;;;;;5.90;1.60;;;;;;;;;;5005984;28;20580;-78
2024/02/13 05:12:53;;;;;;;;;;;;;;;;;;5028934;28;20505;-78
2024/02/13 05:15:21;;;;;;;6.93;2.08;;;;;;;;;;5012319;28;19952;-77
2024/02/13 05:17:48;;;;;;;6.45;2.13;;;;;;;;;;5020859;28;20650;-77
2024/02/13 05:20:14;;;;;;;7.70;1.80;;;;;;;;;;5009907;28;20053;-78
2024/02/13 05:22:42;;;;;;;5.93;1.73;;;;;;;;;;5006774;28;20021;-79
2024/02/13 05:25:09;;;;;;;6.28;1.42;;;;;;;;;;5023218;28;20029;-78
2024/02/13 05:27:34;;;;;;;;;;;;;;;;;;5021356;28;20063;-78
2024/02/13 05:30:01;;;;;;;5.43;1.60;;;;;;;;;;5011322;28;20399;-78
2024/02/13 05:32:27;;;;;;;;;;;;;;;;;;5019186;28;20037;-78
2024/02/13 05:34:53;;;;;;;3.60;1.10;;;;;;;;;;5027936;28;19940;-78
2024/02/13 05:37:20;;;;;;;3.33;1.10;;;;;;;;;;5024056;28;20094;-78
2024/02/13 05:39:50;;;;;;;5.68;1.15;;;;;;;;;;5008673;28;20096;-78
2024/02/13 05:42:18;;;;;;;5.60;1.27;;;;;;;;;;5011412;28;20036;-78
2024/02/13 05:44:45;;;;;;;6.22;1.20;;;;;;;;;;5022542;28;20082;-78
2024/02/13 05:47:11;;;;;;;;;;;;;;;;;;5021873;28;20034;-78
2024/02/13 05:49:37;;;;;;;4.28;1.17;;;;;;;;;;5007451;28;19913;-78
2024/02/13 05:52:05;;;;;;;6.32;1.30;;;;;;;;;;5019777;28;20033;-79
2024/02/13 05:54:33;;;;;;;5.03;1.27;;;;;;;;;;5022826;28;20126;-78
2024/02/13 05:57:00;;;;;;;5.38;1.30;;;;;;;;;;5009482;28;20041;-78
2024/02/13 05:59:29;;;;;;;6.15;1.35;;;;;;;;;;5014794;28;20132;-78
2024/02/13 06:01:55;;;;;;;6.07;1.30;;;;;;;;;;5009139;28;20017;-78
2024/02/13 06:04:22;;;;;;;5.03;1.52;;;;;;;;;;5021022;28;20285;-78
2024/02/13 06:06:49;;;;;;;8.25;1.60;;;;;;;;;;5004638;28;20047;-78
2024/02/13 06:09:22;;;;;;;7.53;1.77;;;;;;;;;;5008092;28;20041;-78
2024/02/13 06:11:57;;;;;;;7.03;1.73;;;;;;;;;;5006436;28;20734;-77
2024/02/13 06:14:24;;;;;;;8.00;1.80;;;;;;;;;;5010557;28;20037;-78
2024/02/13 06:16:50;;;;;;;8.07;1.77;;;;;;;;;;5004887;28;20037;-77
2024/02/13 06:19:16;;;;;;;5.97;1.60;;;;;;;;;;5007044;28;20763;-80
2024/02/13 06:21:42;;;;;;;7.32;1.70;;;;;;;;;;5007618;28;20117;-78
2024/02/13 06:24:09;;;;;;;7.75;1.70;;;;;;;;;;5018726;28;20120;-79
2024/02/13 06:26:37;;;;;;;7.40;1.70;;;;;;;;;;5019645;28;20139;-79
2024/02/13 06:29:03;;;;;;;6.82;1.80;;;;;;;;;;5002683;28;20038;-79
2024/02/13 06:31:32;;;;;;;9.18;1.88;;;;;;;;;;5008074;28;20470;-79
2024/02/13 06:33:59;;;;;;;9.75;2.30;;;;;;;;;;5012048;28;20064;-78
2024/02/13 06:36:26;;;;;;;9.05;2.22;;;;;;;;;;5003148;28;20150;-79
2024/02/13 06:38:52;;;;;;;;;;;;;;;;;;5002262;28;20045;-78
2024/02/13 06:41:18;;;;;;;9.73;2.70;;;;;;;;;;4998914;28;19991;-78
2024/02/13 06:43:44;;;;;;;8.02;2.58;;;;;;;;;;5001955;28;20021;-79
2024/02/13 06:46:10;;;;;;;10.43;2.80;;;;;;;;;;5002572;28;20815;-79
2024/02/13 06:48:39;;;;;;;13.77;3.15;;;;;;;;;;5004633;28;20036;-79
2024/02/13 06:51:05;;;;;;;14.52;2.97;;;;;;;;;;5002856;28;20017;-78
2024/02/13 06:53:31;;;;;;;11.60;2.95;;;;;;;;;;4997165;28;20030;-78
2024/02/13 06:55:58;;;;;;;10.68;3.42;;;;;;;;;;5004643;28;20091;-77
2024/02/13 06:58:24;;;;;;;12.18;3.58;;;;;;;;;;5000322;28;20030;-78
2024/02/13 07:00:51;;;;;;;12.95;4.07;;;;;;;;;;5005560;28;20834;-78
2024/02/13 07:03:17;;;;;;;16.88;4.40;;;;;;;;;;5002215;28;20069;-77
2024/02/13 07:05:43;;;;;;;13.93;4.88;;;;;;;;;;5001738;28;20034;-77
2024/02/13 07:08:10;;;;;;;18.55;4.80;;;;;;;;;;5002714;28;20034;-79
2024/02/13 07:10:36;;;;;;;14.45;4.90;;;;;;;;;;5006475;28;20064;-78
2024/02/13 07:13:02;;;;;;;12.40;4.75;;;;;;;;;;4999634;28;20076;-77
2024/02/13 07:15:29;;;;;;;14.90;5.75;;;;;;;;;;4998961;28;20088;-78
2024/02/13 07:17:55;;;;;;;;;;;;;;;;;;5006449;28;20030;-79
2024/02/13 07:20:22;;;;;;;12.90;5.13;;;;;;;;;;5011488;28;19913;-80
2024/02/13 07:22:48;;;;;;;15.52;4.85;;;;;;;;;;5001490;28;20037;-77
2024/02/13 07:25:14;;;;;;;13.80;3.90;;;;;;;;;;4999322;28;20595;-78
2024/02/13 07:27:41;;;;;;;14.18;3.60;;;;;;;;;;5000543;28;20104;-78
2024/02/13 07:30:08;;;;;;;11.40;3.53;;;;;;;;;;5002102;28;20025;-78
2024/02/13 07:32:35;;;;;;;12.52;4.20;;;;;;;;;;5001160;28;20527;-77
2024/02/13 07:35:04;;;;;;;13.43;3.75;;;;;;;;;;5001486;28;20044;-78
2024/02/13 07:37:31;;;;;;;12.45;4.05;;;;;;;;;;4998551;28;20052;-77
2024/02/13 07:39:58;;;;;;;13.73;3.85;;;;;;;;;;4999849;28;20057;-77
2024/02/13 07:42:25;;;;;;;11.63;2.95;;;;;;;;;;4997116;28;20119;-78
2024/02/13 07:44:51;;;;;;;12.32;3.03;;;;;;;;;;4999787;28;20037;-78
2024/02/13 07:47:17;;;;;;;13.68;2.95;;;;;;;;;;4998899;28;20733;-81
2024/02/13 07:49:44;;;;;;;;;;;;;;;;;;4999772;28;20060;-78
2024/02/13 07:52:12;;;;;;;10.02;3.03;;;;;;;;;;5001250;28;19951;-77
2024/02/13 07:54:39;;;;;;;11.20;3.13;;;;;;;;;;4998772;28;20037;-77
2024/02/13 07:57:05;;;;;;;10.55;3.47;;;;;;;;;;5000195;28;20041;-78
2024/02/13 07:59:31;;;;;;;12.55;3.65;;;;;;;;;;4997316;28;20913;-77
2024/02/13 08:02:17;;;;;;;15.15;4.80;;;;;;;;;;5003163;28;20030;-77
2024/02/13 08:04:43;;;;;;;14.73;4.97;;;;;;;;;;5010919;28;20033;-79
2024/02/13 08:07:09;;;;;;;14.15;5.20;;;;;;;;;;5003857;28;20104;-80
2024/02/13 08:09:35;;;;;;;13.10;4.70;;;;;;;;;;4996270;28;20037;-77
2024/02/13 08:12:06;;;;;;;14.15;4.10;;;;;;;;;;5000485;28;20030;-77
2024/02/13 08:14:36;;;;;;;14.23;4.43;;;;;;;;;;5000408;28;20095;-78
2024/02/13 08:17:06;;;;;;;12.32;3.80;;;;;;;;;;4999322;28;20041;-78
2024/02/13 08:19:33;;;;;;;13.85;3.80;;;;;;;;;;5003154;28;20025;-78
2024/02/13 08:22:00;;;;;;;11.15;3.63;;;;;;;;;;5006172;28;20021;-78
2024/02/13 08:24:26;;;;;;;14.43;3.38;;;;;;;;;;5005910;28;20802;-77
2024/02/13 08:26:53;;;;;;;11.05;3.50;;;;;;;;;;5002478;28;20818;-78
2024/02/13 08:29:19;;;;;;;;;;;;;;;;;;5001920;28;20110;-78
2024/02/13 08:31:46;;;;;;;18.10;4.40;;;;;;;;;;5002320;28;19923;-79
2024/02/13 08:34:12;;;;;;;16.38;4.28;;;;;;;;;;4998742;28;20255;-79
2024/02/13 08:36:38;;;;;;;19.00;4.65;;;;;;;;;;4994260;28;20040;-79
2024/02/13 08:39:05;;;;;;;15.93;4.63;;;;;;;;;;5006629;28;20106;-79
2024/02/13 08:41:34;;;;;;;17.30;4.38;;;;;;;;;;5018448;28;20036;-79
2024/02/13 08:44:00;;;;;;;14.75;4.80;;;;;;;;;;5007933;28;20417;-79
2024/02/13 08:46:26;;;;;;;17.13;7.22;;;;;;;;;;5017724;28;20063;-79
2024/02/13 08:48:52;;;;;;;;;;;;;;;;;;5004528;28;20029;-78
2024/02/13 08:51:28;;;;;;;19.30;6.70;;;;;;;;;;5018399;28;19913;-78
2024/02/13 08:53:56;;;;;;;15.33;5.57;;;;;;;;;;5016466;28;20133;-78
2024/02/13 08:56:22;;;;;;;15.40;4.32;;;;;;;;;;5005705;28;20272;-78
2024/02/13 08:58:52;;;;;;;14.93;4.18;;;;;;;;;;5018090;28;20029;-78
2024/02/13 09:01:21;;;;;;;17.42;4.45;;;;;;;;;;5014834;28;20061;-77
2024/02/13 09:03:48;;;;;;;14.40;4.10;;;;;;;;;;5015853;28;20030;-78
2024/02/13 09:06:15;;;;;;;16.23;3.60;;;;;;;;;;5019269;28;20115;-78
2024/02/13 09:08:43;;;;;;;14.70;3.92;;;;;;;;;;5003324;28;20036;-78
2024/02/13 09:11:12;;;;;;;15.07;3.92;;;;;;;;;;5022260;28;20017;-77
2024/02/13 09:13:38;;;;;;;14.88;4.53;;;;;;;;;;5004315;28;20029;-78
2024/02/13 09:16:05;;;;;;;14.88;5.03;;;;;;;;;;5011432;28;20221;-78
2024/02/13 09:18:31;;;;;;;16.05;5.68;;;;;;;;;;5006856;28;20045;-78
2024/02/13 09:20:58;;;;;;;21.13;8.85;;;;;;;;;;5005397;28;20151;-78
2024/02/13 09:23:27;;;;;;;20.48;7.90;;;;;;;;;;5021192;28;20585;-78
2024/02/13 09:25:55;;;;;;;19.85;7.20;;;;;;;;;;5001605;28;20033;-78
2024/02/13 09:28:22;;;;;;;17.05;7.43;;;;;;;;;;5004674;28;20068;-78
2024/02/13 09:30:50;;;;;;;17.13;6.35;;;;;;;;;;5004934;28;20029;-78
2024/02/13 09:33:20;;;;;;;16.00;5.28;;;;;;;;;;5007647;28;20098;-78
2024/02/13 09:35:46;;;;;;;14.00;3.90;;;;;;;;;;5004049;28;20045;-78
2024/02/13 09:38:14;;;;;;;13.15;3.40;;;;;;;;;;5003745;28;20571;-77
2024/02/13 09:40:40;;;;;;;16.58;4.13;;;;;;;;;;5005018;28;20040;-78
2024/02/13 09:43:08;;;;;;;14.63;4.20;;;;;;;;;;5012497;28;20025;-78
2024/02/13 09:45:34;;;;;;;13.52;3.65;;;;;;;;;;5022538;28;20175;-77
2024/02/13 09:48:05;;;;;;;14.18;4.32;;;;;;;;;;5022202;28;20068;-77
2024/02/13 09:50:37;;;;;;;15.98;3.80;;;;;;;;;;5010063;28;20550;-77
2024/02/13 09:53:05;;;;;;;12.52;3.88;;;;;;;;;;5011299;28;20116;-78
2024/02/13 09:55:34;;;;;;;14.13;4.20;;;;;;;;;;5003137;28;20044;-78
2024/02/13 09:58:00;;;;;;;13.57;3.13;;;;;;;;;;5003869;28;20123;-78
2024/02/13 10:00:27;;;;;;;12.98;3.70;;;;;;;;;;5016351;28;20055;-77
2024/02/13 10:02:54;;;;;;;14.05;2.85;;;;;;;;;;5023108;28;20648;-78
2024/02/13 10:05:20;;;;;;;13.82;3.33;;;;;;;;;;5007894;28;20040;-78
2024/02/13 10:07:46;;;;;;;13.45;3.45;;;;;;;;;;5015722;28;20060;-78
2024/02/13 10:10:13;;;;;;;10.75;2.85;;;;;;;;;;5009514;28;20037;-77
2024/02/13 10:12:52;;;;;;;10.85;3.03;;;;;;;;;;5020790;28;20093;-78
2024/02/13 10:15:18;;;;;;;11.23;2.60;;;;;;;;;;5023639;28;20039;-78
2024/02/13 10:17:47;;;;;;;10.95;2.40;;;;;;;;;;5004658;28;20050;-78
2024/02/13 10:20:17;;;;;;;10.35;2.63;;;;;;;;;;5005689;28;20048;-78
2024/02/13 10:22:46;;;;;;;11.30;2.28;;;;;;;;;;5019059;28;20037;-78
2024/02/13 10:25:12;;;;;;;10.07;2.28;;;;;;;;;;5020828;28;20067;-78
2024/02/13 10:27:38;;;;;;;12.95;2.35;;;;;;;;;;5001953;28;20114;-78
2024/02/13 10:30:06;;;;;;;12.82;2.88;;;;;;;;;;5010479;28;20018;-79
2024/02/13 10:32:38;;;;;;;9.43;2.58;;;;;;;;;;5018305;28;20406;-78
2024/02/13 10:35:08;;;;;;;10.55;3.00;;;;;;;;;;5021813;28;20126;-77
2024/02/13 10:37:34;;;;;;;12.23;3.22;;;;;;;;;;5006107;28;20041;-78
2024/02/13 10:40:08;;;;;;;13.48;3.63;;;;;;;;;;5007098;28;20564;-78
2024/02/13 10:42:38;;;;;;;15.60;3.28;;;;;;;;;;5020178;28;20040;-78
2024/02/13 10:45:09;;;;;;;12.98;3.28;;;;;;;;;;5002644;28;20053;-78
2024/02/13 10:47:42;;;;;;;11.70;3.00;;;;;;;;;;5004428;28;20653;-79
2024/02/13 10:50:09;;;;;;;13.25;3.10;;;;;;;;;;5006297;28;20272;-78
2024/02/13 10:52:36;;;;;;;12.32;3.45;;;;;;;;;;5002527;28;20035;-78
2024/02/13 10:55:06;;;;;;;13.80;3.13;;;;;;;;;;5003980;28;20140;-80
2024/02/13 10:57:33;;;;;;;12.73;2.75;;;;;;;;;;5018463;28;20038;-78
2024/02/13 11:00:07;;;;;;;10.45;2.80;;;;;;;;;;5022455;28;20596;-78
2024/02/13 11:02:34;;;;;;;12.60;3.08;;;;;;;;;;4996116;28;20505;-77
2024/02/13 11:05:01;;;;;;;9.32;2.50;;;;;;;;;;5011703;28;20071;-78
2024/02/13 11:07:27;;;;;;;10.85;2.70;;;;;;;;;;5003876;28;20044;-78
2024/02/13 11:09:55;;;;;;;12.02;2.70;;;;;;;;;;5005021;28;20021;-80
2024/02/13 11:12:22;;;;;;;10.93;2.70;;;;;;;;;;5010177;28;20033;-78
2024/02/13 11:14:48;;;;;;;12.90;3.17;;;;;;;;;;5017644;28;20029;-78
2024/02/13 11:17:16;;;;;;;10.00;2.78;;;;;;;;;;4999359;28;20061;-78
2024/02/13 11:19:45;;;;;;;12.73;2.95;;;;;;;;;;5014232;28;20025;-78
2024/02/13 11:22:13;;;;;;;13.68;2.90;;;;;;;;;;5001926;28;20375;-78
2024/02/13 11:24:51;;;;;;;10.77;2.38;;;;;;;;;;4998275;28;20687;-77
2024/02/13 11:27:18;;;;;;;10.95;2.95;;;;;;;;;;5016714;28;20650;-77
2024/02/13 11:29:58;;;;;;;10.43;3.15;;;;;;;;;;4999263;28;20043;-78
2024/02/13 11:32:28;;;;;;;10.25;2.65;;;;;;;;;;5008571;28;20500;-78
2024/02/13 11:35:07;;;;;;;10.27;2.20;;;;;;;;;;5005390;28;20120;-78
2024/02/13 11:37:36;;;;;;;11.15;2.30;;;;;;;;;;5004044;28;20042;-77
2024/02/13 11:40:08;;;;;;;12.00;2.42;;;;;;;;;;5007732;28;20052;-78
2024/02/13 11:42:35;;;;;;;10.38;2.78;;;;;;;;;;5005644;28;20096;-79
2024/02/13 11:45:05;;;;;;;11.32;2.70;;;;;;;;;;5014087;28;20586;-78
2024/02/13 11:47:32;;;;;;;11.30;3.20;;;;;;;;;;5015579;28;20797;-78
2024/02/13 11:49:59;;;;;;;10.60;2.70;;;;;;;;;;5005849;28;20122;-77
2024/02/13 11:52:25;;;;;;;9.90;2.10;;;;;;;;;;5020687;28;20029;-78
2024/02/13 11:54:52;;;;;;;11.25;2.45;;;;;;;;;;5021828;28;20029;-78
2024/02/13 11:57:19;;;;;;;11.38;3.17;;;;;;;;;;5024438;28;20167;-78
2024/02/13 11:59:56;;;;;;;10.52;2.90;;;;;;;;;;5008902;28;20940;-78
2024/02/13 12:02:22;;;;;;;14.48;6.88;;;;;;;;;;5011199;28;20013;-78
2024/02/13 12:04:48;;;;;;;12.63;3.88;;;;;;;;;;5018266;28;20655;-78
2024/02/13 12:07:16;;;;;;;12.82;3.28;;;;;;;;;;5004100;28;20115;-78
2024/02/13 12:09:42;;;;;;;11.13;3.40;;;;;;;;;;5002703;28;20037;-77
2024/02/13 12:12:12;;;;;;;9.60;2.83;;;;;;;;;;5008821;28;21617;-78
2024/02/13 12:14:39;;;;;;;11.13;2.85;;;;;;;;;;5016419;28;20061;-78
2024/02/13 12:17:09;;;;;;;11.48;2.83;;;;;;;;;;5020708;28;20033;-78
2024/02/13 12:19:40;;;;;;;11.50;2.75;;;;;;;;;;5019276;28;20131;-78
2024/02/13 12:22:10;;;;;;;10.18;2.40;;;;;;;;;;5006782;28;20020;-79
2024/02/13 12:24:38;;;;;;;10.77;2.30;;;;;;;;;;5019189;28;20678;-78
2024/02/13 12:27:05;;;;;;;11.05;2.10;;;;;;;;;;5007827;28;20028;-79
2024/02/13 12:29:32;;;;;;;11.65;2.78;;;;;;;;;;5005641;28;20036;-79
2024/02/13 12:32:00;;;;;;;10.60;2.30;;;;;;;;;;5021721;28;20040;-79
2024/02/13 12:34:29;;;;;;;13.02;2.42;;;;;;;;;;5021388;28;20033;-77
2024/02/13 12:36:58;;;;;;;11.23;2.20;;;;;;;;;;5004814;28;20473;-79
2024/02/13 12:39:25;;;;;;;10.82;2.38;;;;;;;;;;5017851;28;20051;-77
2024/02/13 12:41:57;;;;;;;9.55;2.25;;;;;;;;;;5009374;28;20021;-77
2024/02/13 12:44:23;;;;;;;9.02;2.33;;;;;;;;;;5002261;28;20827;-76
2024/02/13 12:46:51;;;;;;;8.40;2.38;;;;;;;;;;5004191;28;20041;-77
2024/02/13 12:49:19;;;;;;;11.35;2.70;;;;;;;;;;5013618;28;20032;-78
2024/02/13 12:51:46;;;;;;;9.82;2.80;;;;;;;;;;5014008;28;20033;-77
2024/02/13 12:54:12;;;;;;;10.50;2.45;;;;;;;;;;5001639;28;20037;-77
2024/02/13 12:56:40;;;;;;;9.95;2.50;;;;;;;;;;5002796;28;20119;-79
2024/02/13 12:59:13;;;;;;;9.10;2.38;;;;;;;;;;5009361;28;20029;-79
2024/02/13 13:01:46;;;;;;;10.32;2.13;;;;;;;;;;5016831;28;20044;-79
2024/02/13 13:04:13;;;;;;;8.02;2.40;;;;;;;;;;5018544;28;21010;-79
2024/02/13 13:06:46;;;;;;;9.07;2.22;;;;;;;;;;5002796;28;20112;-77
2024/02/13 13:09:13;;;;;;;8.65;2.00;;;;;;;;;;5015204;28;20092;-77
2024/02/13 13:11:40;;;;;;;9.20;2.72;;;;;;;;;;5001153;28;20055;-79
2024/02/13 13:14:07;;;;;;;11.02;2.38;;;;;;;;;;5018351;28;20548;-79
2024/02/13 13:16:35;;;;;;;11.75;2.45;;;;;;;;;;5016543;28;20092;-80
2024/02/13 13:19:03;;;;;;;8.13;2.33;;;;;;;;;;5005803;28;20029;-77
2024/02/13 13:21:29;;;;;;;10.15;2.35;;;;;;;;;;5002246;28;20266;-77
2024/02/13 13:23:57;;;;;;;11.52;2.88;;;;;;;;;;5017955;28;20671;-78
2024/02/13 13:26:33;;;;;;;8.63;2.60;;;;;;;;;;5017180;28;20769;-79
2024/02/13 13:29:04;;;;;;;11.13;2.67;;;;;;;;;;5004649;28;20042;-79
2024/02/13 13:31:34;;;;;;;8.50;2.40;;;;;;;;;;5005171;28;20026;-79
2024/02/13 13:34:15;;;;;;;9.27;2.45;;;;;;;;;;5009502;28;20132;-78
2024/02/13 13:36:41;;;;;;;10.02;2.72;;;;;;;;;;5006413;28;20037;-78
2024/02/13 13:39:11;;;;;;;9.25;2.38;;;;;;;;;;5015376;28;20044;-78
2024/02/13 13:41:40;;;;;;;10.18;2.80;;;;;;;;;;5017848;28;20660;-77
2024/02/13 13:44:08;;;;;;;11.50;2.70;;;;;;;;;;5003571;28;20516;-78
2024/02/13 13:46:35;;;;;;;11.68;2.65;;;;;;;;;;5012544;28;20113;-78
2024/02/13 13:49:01;;;;;;;9.23;2.53;;;;;;;;;;5024078;28;20143;-78
2024/02/13 13:51:30;;;;;;;9.45;2.30;;;;;;;;;;5018798;28;20060;-78
2024/02/13 13:53:57;;;;;;;11.43;2.75;;;;;;;;;;5008523;28;20571;-77
2024/02/13 13:56:23;;;;;;;8.17;2.47;;;;;;;;;;5018699;28;20159;-78
2024/02/13 13:58:51;;;;;;;10.50;2.38;;;;;;;;;;5004494;28;21140;-78
2024/02/13 14:01:17;;;;;;;11.15;2.55;;;;;;;;;;5003379;28;20738;-77
2024/02/13 14:03:44;;;;;;;10.35;2.88;;;;;;;;;;4998927;28;20060;-80
2024/02/13 14:06:10;;;;;;;10.63;2.40;;;;;;;;;;5000911;28;20110;-79
2024/02/13 14:08:39;;;;;;;9.00;2.55;;;;;;;;;;5001351;28;20032;-77
2024/02/13 14:11:06;;;;;;;10.20;2.67;;;;;;;;;;5024624;28;20300;-78
2024/02/13 14:13:32;;;;;;;9.15;3.00;;;;;;;;;;5007243;28;20021;-78
2024/02/13 14:15:58;;;;;;;10.05;2.40;;;;;;;;;;5025522;28;20033;-78
2024/02/13 14:18:26;;;;;;;10.15;2.65;;;;;;;;;;5011230;28;20095;-78
2024/02/13 14:20:53;;;;;;;11.52;2.80;;;;;;;;;;5028580;28;20037;-80
2024/02/13 14:23:23;;;;;;;9.88;2.38;;;;;;;;;;5010565;28;20024;-77
2024/02/13 14:25:50;;;;;;;7.65;2.15;;;;;;;;;;5023608;28;20191;-78
2024/02/13 14:28:16;;;;;;;9.18;2.17;;;;;;;;;;5005379;28;20221;-80
2024/02/13 14:30:42;;;;;;;12.02;2.80;;;;;;;;;;5025340;28;20125;-78
2024/02/13 14:33:08;;;;;;;9.23;3.00;;;;;;;;;;5013270;28;20037;-78
2024/02/13 14:35:34;;;;;;;9.73;2.35;;;;;;;;;;5029422;28;20029;-78
2024/02/13 14:38:03;;;;;;;8.40;2.03;;;;;;;;;;5030944;28;20079;-78
2024/02/13 14:40:30;;;;;;;9.77;2.33;;;;;;;;;;5004745;28;20652;-78
2024/02/13 14:42:57;;;;;;;9.02;2.28;;;;;;;;;;5006440;28;20056;-77
2024/02/13 14:45:24;;;;;;;9.40;2.42;;;;;;;;;;5026982;28;20021;-78
2024/02/13 14:47:51;;;;;;;10.43;2.60;;;;;;;;;;5012548;28;20090;-80
2024/02/13 14:50:17;;;;;;;11.80;3.30;;;;;;;;;;5029157;28;20117;-78